sensor_id;sensor_type;location;lat;lon;timestamp;temperature;humidity
67141;DHT22;54058;52.010;5.546;2022-07-06T00:02:21;14.90;63.10
67141;DHT22;54058;52.010;5.546;2022-07-06T00:04:47;14.90;63.80
67141;DHT22;54058;52.010;5.546;2022-07-06T00:07:12;14.90;64.00
67141;DHT22;54058;52.010;5.546;2022-07-06T00:09:39;14.90;64.20
67141;DHT22;54058;52.010;5.546;2022-07-06T00:12:05;14.80;63.90
67141;DHT22;54058;52.010;5.546;2022-07-06T00:14:31;14.80;63.90
67141;DHT22;54058;52.010;5.546;2022-07-06T00:16:56;14.80;63.30
67141;DHT22;54058;52.010;5.546;2022-07-06T00:19:22;14.80;64.40
67141;DHT22;54058;52.010;5.546;2022-07-06T00:21:47;14.80;64.20
67141;DHT22;54058;52.010;5.546;2022-07-06T00:24:13;14.80;64.30
67141;DHT22;54058;52.010;5.546;2022-07-06T00:26:38;14.80;64.20
67141;DHT22;54058;52.010;5.546;2022-07-06T00:29:04;14.70;63.90
67141;DHT22;54058;52.010;5.546;2022-07-06T00:31:29;14.70;64.70
67141;DHT22;54058;52.010;5.546;2022-07-06T00:33:55;14.70;64.20
67141;DHT22;54058;52.010;5.546;2022-07-06T00:36:20;14.70;64.80
67141;DHT22;54058;52.010;5.546;2022-07-06T00:38:46;14.70;65.10
67141;DHT22;54058;52.010;5.546;2022-07-06T00:41:12;14.70;65.00
67141;DHT22;54058;52.010;5.546;2022-07-06T00:43:46;14.70;64.80
67141;DHT22;54058;52.010;5.546;2022-07-06T00:46:11;14.60;64.70
67141;DHT22;54058;52.010;5.546;2022-07-06T00:48:37;14.60;65.00
67141;DHT22;54058;52.010;5.546;2022-07-06T00:51:02;14.60;64.60
67141;DHT22;54058;52.010;5.546;2022-07-06T00:53:28;14.50;65.10
67141;DHT22;54058;52.010;5.546;2022-07-06T00:55:53;14.60;65.40
67141;DHT22;54058;52.010;5.546;2022-07-06T00:58:19;14.60;65.30
67141;DHT22;54058;52.010;5.546;2022-07-06T01:00:45;14.60;65.30
67141;DHT22;54058;52.010;5.546;2022-07-06T01:03:10;14.50;65.00
67141;DHT22;54058;52.010;5.546;2022-07-06T01:05:35;14.50;65.20
67141;DHT22;54058;52.010;5.546;2022-07-06T01:08:01;14.40;65.10
67141;DHT22;54058;52.010;5.546;2022-07-06T01:10:27;14.40;65.50
67141;DHT22;54058;52.010;5.546;2022-07-06T01:12:52;14.40;65.50
67141;DHT22;54058;52.010;5.546;2022-07-06T01:15:21;14.40;64.80
67141;DHT22;54058;52.010;5.546;2022-07-06T01:17:47;14.40;65.50
67141;DHT22;54058;52.010;5.546;2022-07-06T01:22:42;14.40;65.20
67141;DHT22;54058;52.010;5.546;2022-07-06T01:25:07;14.40;65.10
67141;DHT22;54058;52.010;5.546;2022-07-06T01:27:34;14.40;64.80
67141;DHT22;54058;52.010;5.546;2022-07-06T01:30:02;14.40;64.80
67141;DHT22;54058;52.010;5.546;2022-07-06T01:32:27;14.30;65.60
67141;DHT22;54058;52.010;5.546;2022-07-06T01:34:53;14.30;65.40
67141;DHT22;54058;52.010;5.546;2022-07-06T01:37:18;14.40;65.70
67141;DHT22;54058;52.010;5.546;2022-07-06T01:39:44;14.40;65.70
67141;DHT22;54058;52.010;5.546;2022-07-06T01:42:09;14.40;65.80
67141;DHT22;54058;52.010;5.546;2022-07-06T01:44:35;14.40;65.80
67141;DHT22;54058;52.010;5.546;2022-07-06T01:47:00;14.40;65.40
67141;DHT22;54058;52.010;5.546;2022-07-06T01:49:26;14.40;64.60
67141;DHT22;54058;52.010;5.546;2022-07-06T01:51:51;14.30;65.10
67141;DHT22;54058;52.010;5.546;2022-07-06T01:54:17;14.40;64.70
67141;DHT22;54058;52.010;5.546;2022-07-06T01:56:42;14.40;65.60
67141;DHT22;54058;52.010;5.546;2022-07-06T01:59:07;14.40;64.70
67141;DHT22;54058;52.010;5.546;2022-07-06T02:01:33;14.40;65.00
67141;DHT22;54058;52.010;5.546;2022-07-06T02:03:58;14.30;65.20
67141;DHT22;54058;52.010;5.546;2022-07-06T02:06:24;14.30;65.40
67141;DHT22;54058;52.010;5.546;2022-07-06T02:08:49;14.30;65.80
67141;DHT22;54058;52.010;5.546;2022-07-06T02:11:17;14.30;66.10
67141;DHT22;54058;52.010;5.546;2022-07-06T02:13:42;14.30;66.20
67141;DHT22;54058;52.010;5.546;2022-07-06T02:16:08;14.30;65.70
67141;DHT22;54058;52.010;5.546;2022-07-06T02:18:33;14.40;65.60
67141;DHT22;54058;52.010;5.546;2022-07-06T02:20:59;14.30;65.40
67141;DHT22;54058;52.010;5.546;2022-07-06T02:23:24;14.30;65.50
67141;DHT22;54058;52.010;5.546;2022-07-06T02:25:51;14.30;65.20
67141;DHT22;54058;52.010;5.546;2022-07-06T02:28:16;14.20;65.70
67141;DHT22;54058;52.010;5.546;2022-07-06T02:30:42;14.20;65.70
67141;DHT22;54058;52.010;5.546;2022-07-06T02:33:07;14.20;65.50
67141;DHT22;54058;52.010;5.546;2022-07-06T02:35:33;14.20;65.80
67141;DHT22;54058;52.010;5.546;2022-07-06T02:37:58;14.20;65.50
67141;DHT22;54058;52.010;5.546;2022-07-06T02:40:24;14.20;65.40
67141;DHT22;54058;52.010;5.546;2022-07-06T02:42:49;14.20;65.10
67141;DHT22;54058;52.010;5.546;2022-07-06T02:45:15;14.20;65.90
67141;DHT22;54058;52.010;5.546;2022-07-06T02:47:40;14.20;65.40
67141;DHT22;54058;52.010;5.546;2022-07-06T02:50:06;14.20;64.10
67141;DHT22;54058;52.010;5.546;2022-07-06T02:52:32;14.20;65.20
67141;DHT22;54058;52.010;5.546;2022-07-06T02:54:57;14.20;65.20
67141;DHT22;54058;52.010;5.546;2022-07-06T02:57:23;14.10;65.00
67141;DHT22;54058;52.010;5.546;2022-07-06T02:59:48;14.20;65.60
67141;DHT22;54058;52.010;5.546;2022-07-06T03:02:18;14.20;64.70
67141;DHT22;54058;52.010;5.546;2022-07-06T03:04:43;14.20;65.20
67141;DHT22;54058;52.010;5.546;2022-07-06T03:07:09;14.20;64.90
67141;DHT22;54058;52.010;5.546;2022-07-06T03:09:35;14.30;65.60
67141;DHT22;54058;52.010;5.546;2022-07-06T03:12:00;14.30;65.70
67141;DHT22;54058;52.010;5.546;2022-07-06T03:14:26;14.30;65.10
67141;DHT22;54058;52.010;5.546;2022-07-06T03:16:52;14.40;65.50
67141;DHT22;54058;52.010;5.546;2022-07-06T03:19:18;14.40;65.20
67141;DHT22;54058;52.010;5.546;2022-07-06T03:21:43;14.50;66.00
67141;DHT22;54058;52.010;5.546;2022-07-06T03:24:09;14.50;65.50
67141;DHT22;54058;52.010;5.546;2022-07-06T03:26:34;14.60;65.90
67141;DHT22;54058;52.010;5.546;2022-07-06T03:29:00;14.70;65.80
67141;DHT22;54058;52.010;5.546;2022-07-06T03:31:25;14.70;65.70
67141;DHT22;54058;52.010;5.546;2022-07-06T03:33:51;14.80;65.80
67141;DHT22;54058;52.010;5.546;2022-07-06T03:36:16;14.80;65.40
67141;DHT22;54058;52.010;5.546;2022-07-06T03:38:42;14.80;65.20
67141;DHT22;54058;52.010;5.546;2022-07-06T03:41:08;14.90;65.70
67141;DHT22;54058;52.010;5.546;2022-07-06T03:43:33;14.90;65.70
67141;DHT22;54058;52.010;5.546;2022-07-06T03:45:59;14.90;66.20
67141;DHT22;54058;52.010;5.546;2022-07-06T03:48:24;15.00;66.40
67141;DHT22;54058;52.010;5.546;2022-07-06T03:50:50;15.00;65.60
67141;DHT22;54058;52.010;5.546;2022-07-06T03:53:15;15.10;66.30
67141;DHT22;54058;52.010;5.546;2022-07-06T03:55:41;15.10;66.40
67141;DHT22;54058;52.010;5.546;2022-07-06T03:58:06;15.20;65.70
67141;DHT22;54058;52.010;5.546;2022-07-06T04:00:32;15.20;65.60
67141;DHT22;54058;52.010;5.546;2022-07-06T04:02:58;15.30;66.40
67141;DHT22;54058;52.010;5.546;2022-07-06T04:05:25;15.30;65.50
67141;DHT22;54058;52.010;5.546;2022-07-06T04:07:50;15.40;66.30
67141;DHT22;54058;52.010;5.546;2022-07-06T04:10:16;15.50;65.40
67141;DHT22;54058;52.010;5.546;2022-07-06T04:12:42;15.50;65.90
67141;DHT22;54058;52.010;5.546;2022-07-06T04:15:08;15.50;65.50
67141;DHT22;54058;52.010;5.546;2022-07-06T04:17:34;15.60;65.80
67141;DHT22;54058;52.010;5.546;2022-07-06T04:20:18;15.70;65.50
67141;DHT22;54058;52.010;5.546;2022-07-06T04:22:43;15.70;65.30
67141;DHT22;54058;52.010;5.546;2022-07-06T04:25:09;15.80;65.60
67141;DHT22;54058;52.010;5.546;2022-07-06T04:27:34;15.80;65.90
67141;DHT22;54058;52.010;5.546;2022-07-06T04:30:00;15.80;65.80
67141;DHT22;54058;52.010;5.546;2022-07-06T04:32:26;15.80;65.30
67141;DHT22;54058;52.010;5.546;2022-07-06T04:34:51;15.80;65.60
67141;DHT22;54058;52.010;5.546;2022-07-06T04:37:17;15.80;65.70
67141;DHT22;54058;52.010;5.546;2022-07-06T04:39:42;15.80;65.20
67141;DHT22;54058;52.010;5.546;2022-07-06T04:42:08;15.80;65.50
67141;DHT22;54058;52.010;5.546;2022-07-06T04:44:33;15.90;65.00
67141;DHT22;54058;52.010;5.546;2022-07-06T04:46:59;15.90;65.20
67141;DHT22;54058;52.010;5.546;2022-07-06T04:49:24;16.00;65.40
67141;DHT22;54058;52.010;5.546;2022-07-06T04:51:50;15.90;65.10
67141;DHT22;54058;52.010;5.546;2022-07-06T04:54:15;15.90;64.90
67141;DHT22;54058;52.010;5.546;2022-07-06T04:56:41;15.90;65.30
67141;DHT22;54058;52.010;5.546;2022-07-06T04:59:06;16.00;64.70
67141;DHT22;54058;52.010;5.546;2022-07-06T05:01:32;16.10;65.20
67141;DHT22;54058;52.010;5.546;2022-07-06T05:03:57;16.20;65.40
67141;DHT22;54058;52.010;5.546;2022-07-06T05:06:23;16.20;65.60
67141;DHT22;54058;52.010;5.546;2022-07-06T05:08:48;16.30;65.00
67141;DHT22;54058;52.010;5.546;2022-07-06T05:11:14;16.30;65.20
67141;DHT22;54058;52.010;5.546;2022-07-06T05:13:39;16.40;65.20
67141;DHT22;54058;52.010;5.546;2022-07-06T05:16:05;16.40;64.70
67141;DHT22;54058;52.010;5.546;2022-07-06T05:18:30;16.50;64.80
67141;DHT22;54058;52.010;5.546;2022-07-06T05:20:56;16.60;65.50
67141;DHT22;54058;52.010;5.546;2022-07-06T05:23:21;16.60;64.70
67141;DHT22;54058;52.010;5.546;2022-07-06T05:25:47;16.70;64.90
67141;DHT22;54058;52.010;5.546;2022-07-06T05:28:12;16.70;64.50
67141;DHT22;54058;52.010;5.546;2022-07-06T05:30:38;16.80;64.80
67141;DHT22;54058;52.010;5.546;2022-07-06T05:33:03;16.70;64.40
67141;DHT22;54058;52.010;5.546;2022-07-06T05:35:29;16.70;64.20
67141;DHT22;54058;52.010;5.546;2022-07-06T05:37:54;16.80;64.70
67141;DHT22;54058;52.010;5.546;2022-07-06T05:40:20;16.90;64.40
67141;DHT22;54058;52.010;5.546;2022-07-06T05:42:45;17.00;64.30
67141;DHT22;54058;52.010;5.546;2022-07-06T05:45:11;17.10;64.20
67141;DHT22;54058;52.010;5.546;2022-07-06T05:47:37;17.30;64.80
67141;DHT22;54058;52.010;5.546;2022-07-06T05:50:21;17.50;63.90
67141;DHT22;54058;52.010;5.546;2022-07-06T05:52:56;17.80;64.00
67141;DHT22;54058;52.010;5.546;2022-07-06T05:55:22;17.90;63.50
67141;DHT22;54058;52.010;5.546;2022-07-06T05:57:48;18.10;63.20
67141;DHT22;54058;52.010;5.546;2022-07-06T06:00:15;18.10;62.80
67141;DHT22;54058;52.010;5.546;2022-07-06T06:02:42;18.10;62.90
67141;DHT22;54058;52.010;5.546;2022-07-06T06:05:08;18.10;63.00
67141;DHT22;54058;52.010;5.546;2022-07-06T06:07:37;18.20;63.00
67141;DHT22;54058;52.010;5.546;2022-07-06T06:10:04;18.20;62.60
67141;DHT22;54058;52.010;5.546;2022-07-06T06:12:30;18.30;62.70
67141;DHT22;54058;52.010;5.546;2022-07-06T06:14:56;18.40;62.60
67141;DHT22;54058;52.010;5.546;2022-07-06T06:17:21;18.30;62.30
67141;DHT22;54058;52.010;5.546;2022-07-06T06:19:47;18.30;62.20
67141;DHT22;54058;52.010;5.546;2022-07-06T06:22:13;18.30;62.40
67141;DHT22;54058;52.010;5.546;2022-07-06T06:24:38;18.30;62.70
67141;DHT22;54058;52.010;5.546;2022-07-06T06:27:04;18.40;62.40
67141;DHT22;54058;52.010;5.546;2022-07-06T06:29:29;18.40;61.80
67141;DHT22;54058;52.010;5.546;2022-07-06T06:31:55;18.50;61.90
67141;DHT22;54058;52.010;5.546;2022-07-06T06:34:20;18.40;62.00
67141;DHT22;54058;52.010;5.546;2022-07-06T06:36:46;18.40;62.20
67141;DHT22;54058;52.010;5.546;2022-07-06T06:39:11;18.40;62.40
67141;DHT22;54058;52.010;5.546;2022-07-06T06:41:40;18.70;62.10
67141;DHT22;54058;52.010;5.546;2022-07-06T06:44:05;19.20;62.30
67141;DHT22;54058;52.010;5.546;2022-07-06T06:46:31;19.80;61.10
67141;DHT22;54058;52.010;5.546;2022-07-06T06:48:56;20.40;61.20
67141;DHT22;54058;52.010;5.546;2022-07-06T06:51:22;21.20;60.40
67141;DHT22;54058;52.010;5.546;2022-07-06T06:53:47;21.90;59.40
67141;DHT22;54058;52.010;5.546;2022-07-06T06:56:13;22.50;57.20
67141;DHT22;54058;52.010;5.546;2022-07-06T06:58:39;23.00;57.10
67141;DHT22;54058;52.010;5.546;2022-07-06T07:01:04;23.60;55.30
67141;DHT22;54058;52.010;5.546;2022-07-06T07:03:30;23.90;53.60
67141;DHT22;54058;52.010;5.546;2022-07-06T07:05:56;23.90;53.90
67141;DHT22;54058;52.010;5.546;2022-07-06T07:08:21;23.90;51.30
67141;DHT22;54058;52.010;5.546;2022-07-06T07:10:47;23.60;52.20
67141;DHT22;54058;52.010;5.546;2022-07-06T07:13:12;23.30;51.60
67141;DHT22;54058;52.010;5.546;2022-07-06T07:15:38;22.90;55.20
67141;DHT22;54058;52.010;5.546;2022-07-06T07:18:03;22.90;55.60
67141;DHT22;54058;52.010;5.546;2022-07-06T07:20:29;22.80;53.00
67141;DHT22;54058;52.010;5.546;2022-07-06T07:22:55;22.10;56.80
67141;DHT22;54058;52.010;5.546;2022-07-06T07:25:21;21.80;56.40
67141;DHT22;54058;52.010;5.546;2022-07-06T07:27:47;21.60;58.30
67141;DHT22;54058;52.010;5.546;2022-07-06T07:30:13;21.40;55.50
67141;DHT22;54058;52.010;5.546;2022-07-06T07:32:38;21.40;58.00
67141;DHT22;54058;52.010;5.546;2022-07-06T07:35:05;21.40;56.70
67141;DHT22;54058;52.010;5.546;2022-07-06T07:37:31;21.40;57.10
67141;DHT22;54058;52.010;5.546;2022-07-06T07:39:57;21.10;56.70
67141;DHT22;54058;52.010;5.546;2022-07-06T07:42:22;20.90;56.30
67141;DHT22;54058;52.010;5.546;2022-07-06T07:44:48;20.90;56.80
67141;DHT22;54058;52.010;5.546;2022-07-06T07:47:13;21.00;56.80
67141;DHT22;54058;52.010;5.546;2022-07-06T07:52:42;21.10;56.50
67141;DHT22;54058;52.010;5.546;2022-07-06T07:55:07;21.10;56.50
67141;DHT22;54058;52.010;5.546;2022-07-06T07:57:33;20.90;56.60
67141;DHT22;54058;52.010;5.546;2022-07-06T07:59:58;20.70;55.30
67141;DHT22;54058;52.010;5.546;2022-07-06T08:02:24;20.50;56.50
67141;DHT22;54058;52.010;5.546;2022-07-06T08:04:49;20.40;54.70
67141;DHT22;54058;52.010;5.546;2022-07-06T08:07:15;20.40;56.20
67141;DHT22;54058;52.010;5.546;2022-07-06T08:09:40;20.30;54.80
67141;DHT22;54058;52.010;5.546;2022-07-06T08:12:06;20.10;54.00
67141;DHT22;54058;52.010;5.546;2022-07-06T08:14:32;20.10;53.90
67141;DHT22;54058;52.010;5.546;2022-07-06T08:16:57;20.20;52.10
67141;DHT22;54058;52.010;5.546;2022-07-06T08:19:23;20.30;55.20
67141;DHT22;54058;52.010;5.546;2022-07-06T08:21:48;20.60;55.50
67141;DHT22;54058;52.010;5.546;2022-07-06T08:24:14;21.10;55.10
67141;DHT22;54058;52.010;5.546;2022-07-06T08:26:39;21.60;53.00
67141;DHT22;54058;52.010;5.546;2022-07-06T08:29:05;21.70;51.40
67141;DHT22;54058;52.010;5.546;2022-07-06T08:31:31;21.80;50.00
67141;DHT22;54058;52.010;5.546;2022-07-06T08:33:58;22.10;50.00
67141;DHT22;54058;52.010;5.546;2022-07-06T08:36:24;22.00;49.70
67141;DHT22;54058;52.010;5.546;2022-07-06T08:38:50;22.10;49.50
67141;DHT22;54058;52.010;5.546;2022-07-06T08:41:15;22.40;52.80
67141;DHT22;54058;52.010;5.546;2022-07-06T08:43:41;23.00;50.00
67141;DHT22;54058;52.010;5.546;2022-07-06T08:46:07;23.00;52.20
67141;DHT22;54058;52.010;5.546;2022-07-06T08:48:37;22.90;52.40
67141;DHT22;54058;52.010;5.546;2022-07-06T08:51:06;22.80;53.10
67141;DHT22;54058;52.010;5.546;2022-07-06T08:53:32;22.70;53.10
67141;DHT22;54058;52.010;5.546;2022-07-06T08:55:58;22.50;54.00
67141;DHT22;54058;52.010;5.546;2022-07-06T08:58:23;22.30;53.70
67141;DHT22;54058;52.010;5.546;2022-07-06T09:00:49;22.20;54.70
67141;DHT22;54058;52.010;5.546;2022-07-06T09:03:14;22.10;53.70
67141;DHT22;54058;52.010;5.546;2022-07-06T09:05:40;22.00;52.90
67141;DHT22;54058;52.010;5.546;2022-07-06T09:08:08;22.30;53.60
67141;DHT22;54058;52.010;5.546;2022-07-06T09:10:34;22.80;52.60
67141;DHT22;54058;52.010;5.546;2022-07-06T09:13:06;23.00;50.10
67141;DHT22;54058;52.010;5.546;2022-07-06T09:15:32;22.80;51.20
67141;DHT22;54058;52.010;5.546;2022-07-06T09:17:58;22.60;49.10
67141;DHT22;54058;52.010;5.546;2022-07-06T09:20:23;22.50;48.90
67141;DHT22;54058;52.010;5.546;2022-07-06T09:22:50;22.60;51.60
67141;DHT22;54058;52.010;5.546;2022-07-06T09:25:16;23.10;49.40
67141;DHT22;54058;52.010;5.546;2022-07-06T09:27:42;23.50;49.80
67141;DHT22;54058;52.010;5.546;2022-07-06T09:30:09;24.00;50.30
67141;DHT22;54058;52.010;5.546;2022-07-06T09:32:41;24.20;47.10
67141;DHT22;54058;52.010;5.546;2022-07-06T09:35:08;24.20;46.10
67141;DHT22;54058;52.010;5.546;2022-07-06T09:37:34;24.00;47.00
67141;DHT22;54058;52.010;5.546;2022-07-06T09:39:59;23.90;47.30
67141;DHT22;54058;52.010;5.546;2022-07-06T09:42:25;23.50;47.60
67141;DHT22;54058;52.010;5.546;2022-07-06T09:44:51;23.20;45.30
67141;DHT22;54058;52.010;5.546;2022-07-06T09:47:17;23.00;48.20
67141;DHT22;54058;52.010;5.546;2022-07-06T09:49:43;22.90;50.00
67141;DHT22;54058;52.010;5.546;2022-07-06T09:52:11;22.70;49.90
67141;DHT22;54058;52.010;5.546;2022-07-06T09:54:37;22.60;46.60
67141;DHT22;54058;52.010;5.546;2022-07-06T09:57:04;22.60;50.80
67141;DHT22;54058;52.010;5.546;2022-07-06T09:59:30;22.70;48.00
67141;DHT22;54058;52.010;5.546;2022-07-06T10:01:57;23.00;47.80
67141;DHT22;54058;52.010;5.546;2022-07-06T10:04:23;23.30;48.90
67141;DHT22;54058;52.010;5.546;2022-07-06T10:06:49;23.50;45.00
67141;DHT22;54058;52.010;5.546;2022-07-06T10:09:16;23.20;44.40
67141;DHT22;54058;52.010;5.546;2022-07-06T10:11:50;22.80;45.40
67141;DHT22;54058;52.010;5.546;2022-07-06T10:14:22;22.60;48.80
67141;DHT22;54058;52.010;5.546;2022-07-06T10:16:48;22.50;49.10
67141;DHT22;54058;52.010;5.546;2022-07-06T10:19:14;22.50;44.80
67141;DHT22;54058;52.010;5.546;2022-07-06T10:21:41;22.30;47.80
67141;DHT22;54058;52.010;5.546;2022-07-06T10:24:07;22.30;48.50
67141;DHT22;54058;52.010;5.546;2022-07-06T10:26:33;22.30;50.60
67141;DHT22;54058;52.010;5.546;2022-07-06T10:28:59;22.40;49.20
67141;DHT22;54058;52.010;5.546;2022-07-06T10:31:26;22.30;48.80
67141;DHT22;54058;52.010;5.546;2022-07-06T10:33:54;22.20;45.90
67141;DHT22;54058;52.010;5.546;2022-07-06T10:36:20;22.10;49.30
67141;DHT22;54058;52.010;5.546;2022-07-06T10:38:46;22.50;48.90
67141;DHT22;54058;52.010;5.546;2022-07-06T10:41:13;22.80;47.90
67141;DHT22;54058;52.010;5.546;2022-07-06T10:43:43;22.90;46.30
67141;DHT22;54058;52.010;5.546;2022-07-06T10:46:16;23.10;47.10
67141;DHT22;54058;52.010;5.546;2022-07-06T10:48:48;23.40;48.40
67141;DHT22;54058;52.010;5.546;2022-07-06T10:51:28;23.60;47.00
67141;DHT22;54058;52.010;5.546;2022-07-06T10:53:55;23.90;46.00
67141;DHT22;54058;52.010;5.546;2022-07-06T10:56:21;23.70;44.30
67141;DHT22;54058;52.010;5.546;2022-07-06T10:58:56;23.70;47.70
67141;DHT22;54058;52.010;5.546;2022-07-06T11:01:27;23.50;45.30
67141;DHT22;54058;52.010;5.546;2022-07-06T11:06:23;23.40;42.50
67141;DHT22;54058;52.010;5.546;2022-07-06T11:11:22;22.70;46.50
67141;DHT22;54058;52.010;5.546;2022-07-06T11:14:07;22.70;47.40
67141;DHT22;54058;52.010;5.546;2022-07-06T11:21:37;23.00;48.50
67141;DHT22;54058;52.010;5.546;2022-07-06T11:24:03;23.40;48.00
67141;DHT22;54058;52.010;5.546;2022-07-06T11:26:30;23.90;47.40
67141;DHT22;54058;52.010;5.546;2022-07-06T11:28:55;23.80;41.40
67141;DHT22;54058;52.010;5.546;2022-07-06T11:31:23;23.50;43.50
67141;DHT22;54058;52.010;5.546;2022-07-06T11:33:48;23.50;44.00
67141;DHT22;54058;52.010;5.546;2022-07-06T11:36:18;23.50;44.90
67141;DHT22;54058;52.010;5.546;2022-07-06T11:38:45;23.50;46.30
67141;DHT22;54058;52.010;5.546;2022-07-06T11:41:11;23.50;44.00
67141;DHT22;54058;52.010;5.546;2022-07-06T11:43:39;23.50;46.10
67141;DHT22;54058;52.010;5.546;2022-07-06T11:46:18;23.20;45.50
67141;DHT22;54058;52.010;5.546;2022-07-06T11:48:47;22.90;47.00
67141;DHT22;54058;52.010;5.546;2022-07-06T11:51:13;22.90;44.90
67141;DHT22;54058;52.010;5.546;2022-07-06T11:53:43;22.80;45.60
67141;DHT22;54058;52.010;5.546;2022-07-06T11:56:09;22.80;47.60
67141;DHT22;54058;52.010;5.546;2022-07-06T11:58:35;22.90;47.30
67141;DHT22;54058;52.010;5.546;2022-07-06T12:01:08;22.90;47.90
67141;DHT22;54058;52.010;5.546;2022-07-06T12:03:34;23.10;48.50
67141;DHT22;54058;52.010;5.546;2022-07-06T12:06:03;23.50;48.00
67141;DHT22;54058;52.010;5.546;2022-07-06T12:08:29;23.70;45.80
67141;DHT22;54058;52.010;5.546;2022-07-06T12:10:55;24.10;46.80
67141;DHT22;54058;52.010;5.546;2022-07-06T12:13:22;24.20;47.10
67141;DHT22;54058;52.010;5.546;2022-07-06T12:15:48;24.00;46.20
67141;DHT22;54058;52.010;5.546;2022-07-06T12:18:14;24.00;47.30
67141;DHT22;54058;52.010;5.546;2022-07-06T12:20:39;23.80;47.00
67141;DHT22;54058;52.010;5.546;2022-07-06T12:23:05;23.80;43.80
67141;DHT22;54058;52.010;5.546;2022-07-06T12:25:31;23.90;47.30
67141;DHT22;54058;52.010;5.546;2022-07-06T12:27:57;24.20;47.20
67141;DHT22;54058;52.010;5.546;2022-07-06T12:30:23;24.40;47.60
67141;DHT22;54058;52.010;5.546;2022-07-06T12:33:33;24.30;45.30
67141;DHT22;54058;52.010;5.546;2022-07-06T12:35:34;24.20;47.30
67141;DHT22;54058;52.010;5.546;2022-07-06T12:37:59;24.20;47.00
67141;DHT22;54058;52.010;5.546;2022-07-06T12:40:26;24.40;46.10
67141;DHT22;54058;52.010;5.546;2022-07-06T12:42:53;24.50;47.30
67141;DHT22;54058;52.010;5.546;2022-07-06T12:45:18;24.60;46.30
67141;DHT22;54058;52.010;5.546;2022-07-06T12:48:00;24.50;46.10
67141;DHT22;54058;52.010;5.546;2022-07-06T12:50:36;24.60;46.10
67141;DHT22;54058;52.010;5.546;2022-07-06T12:53:02;24.70;44.90
67141;DHT22;54058;52.010;5.546;2022-07-06T12:55:29;24.80;44.50
67141;DHT22;54058;52.010;5.546;2022-07-06T12:57:55;24.70;42.20
67141;DHT22;54058;52.010;5.546;2022-07-06T13:00:21;24.50;45.20
67141;DHT22;54058;52.010;5.546;2022-07-06T13:02:48;24.60;45.70
67141;DHT22;54058;52.010;5.546;2022-07-06T13:05:15;24.70;44.20
67141;DHT22;54058;52.010;5.546;2022-07-06T13:07:44;24.80;44.00
67141;DHT22;54058;52.010;5.546;2022-07-06T13:10:11;24.90;44.10
67141;DHT22;54058;52.010;5.546;2022-07-06T13:12:37;24.90;47.20
67141;DHT22;54058;52.010;5.546;2022-07-06T13:15:03;25.00;47.40
67141;DHT22;54058;52.010;5.546;2022-07-06T13:17:29;25.10;44.40
67141;DHT22;54058;52.010;5.546;2022-07-06T13:19:55;25.10;43.10
67141;DHT22;54058;52.010;5.546;2022-07-06T13:22:20;25.20;45.60
67141;DHT22;54058;52.010;5.546;2022-07-06T13:24:46;25.20;46.00
67141;DHT22;54058;52.010;5.546;2022-07-06T13:27:12;25.00;44.70
67141;DHT22;54058;52.010;5.546;2022-07-06T13:29:37;25.10;44.60
67141;DHT22;54058;52.010;5.546;2022-07-06T13:32:03;25.20;44.60
67141;DHT22;54058;52.010;5.546;2022-07-06T13:34:29;25.40;44.00
67141;DHT22;54058;52.010;5.546;2022-07-06T13:36:54;25.40;44.80
67141;DHT22;54058;52.010;5.546;2022-07-06T13:39:20;25.30;42.40
67141;DHT22;54058;52.010;5.546;2022-07-06T13:41:45;25.30;41.40
67141;DHT22;54058;52.010;5.546;2022-07-06T13:44:11;25.20;44.60
67141;DHT22;54058;52.010;5.546;2022-07-06T13:46:37;25.20;43.90
67141;DHT22;54058;52.010;5.546;2022-07-06T13:49:03;25.30;42.70
67141;DHT22;54058;52.010;5.546;2022-07-06T13:51:29;25.20;45.50
67141;DHT22;54058;52.010;5.546;2022-07-06T13:53:56;25.30;45.20
67141;DHT22;54058;52.010;5.546;2022-07-06T13:56:22;25.40;43.40
67141;DHT22;54058;52.010;5.546;2022-07-06T13:58:47;25.30;44.70
67141;DHT22;54058;52.010;5.546;2022-07-06T14:01:13;25.20;45.40
67141;DHT22;54058;52.010;5.546;2022-07-06T14:03:38;25.20;44.50
67141;DHT22;54058;52.010;5.546;2022-07-06T14:06:05;25.20;45.00
67141;DHT22;54058;52.010;5.546;2022-07-06T14:08:34;25.10;45.60
67141;DHT22;54058;52.010;5.546;2022-07-06T14:11:00;25.10;44.10
67141;DHT22;54058;52.010;5.546;2022-07-06T14:13:26;25.20;45.50
67141;DHT22;54058;52.010;5.546;2022-07-06T14:15:51;25.20;44.00
67141;DHT22;54058;52.010;5.546;2022-07-06T14:18:17;25.20;44.90
67141;DHT22;54058;52.010;5.546;2022-07-06T14:20:43;25.10;44.70
67141;DHT22;54058;52.010;5.546;2022-07-06T14:23:09;25.00;45.70
67141;DHT22;54058;52.010;5.546;2022-07-06T14:25:34;25.00;43.90
67141;DHT22;54058;52.010;5.546;2022-07-06T14:28:00;25.00;45.30
67141;DHT22;54058;52.010;5.546;2022-07-06T14:30:27;24.90;44.50
67141;DHT22;54058;52.010;5.546;2022-07-06T14:32:53;24.90;44.60
67141;DHT22;54058;52.010;5.546;2022-07-06T14:35:18;24.90;45.10
67141;DHT22;54058;52.010;5.546;2022-07-06T14:37:44;24.90;45.00
67141;DHT22;54058;52.010;5.546;2022-07-06T14:40:09;24.90;45.20
67141;DHT22;54058;52.010;5.546;2022-07-06T14:42:35;24.90;44.00
67141;DHT22;54058;52.010;5.546;2022-07-06T14:45:00;24.90;45.40
67141;DHT22;54058;52.010;5.546;2022-07-06T14:47:26;24.80;44.90
67141;DHT22;54058;52.010;5.546;2022-07-06T14:49:51;24.60;45.80
67141;DHT22;54058;52.010;5.546;2022-07-06T14:52:18;24.50;44.70
67141;DHT22;54058;52.010;5.546;2022-07-06T14:54:43;24.50;45.70
67141;DHT22;54058;52.010;5.546;2022-07-06T14:57:09;24.40;45.00
67141;DHT22;54058;52.010;5.546;2022-07-06T14:59:34;24.30;45.70
67141;DHT22;54058;52.010;5.546;2022-07-06T15:02:00;24.10;46.60
67141;DHT22;54058;52.010;5.546;2022-07-06T15:04:26;24.10;46.80
67141;DHT22;54058;52.010;5.546;2022-07-06T15:06:51;24.10;46.50
67141;DHT22;54058;52.010;5.546;2022-07-06T15:09:17;24.10;46.80
67141;DHT22;54058;52.010;5.546;2022-07-06T15:11:42;24.10;46.80
67141;DHT22;54058;52.010;5.546;2022-07-06T15:14:10;24.10;47.20
67141;DHT22;54058;52.010;5.546;2022-07-06T15:16:36;24.10;47.30
67141;DHT22;54058;52.010;5.546;2022-07-06T15:19:01;24.10;48.40
67141;DHT22;54058;52.010;5.546;2022-07-06T15:21:27;24.10;48.10
67141;DHT22;54058;52.010;5.546;2022-07-06T15:23:52;24.10;47.70
67141;DHT22;54058;52.010;5.546;2022-07-06T15:26:18;24.00;47.70
67141;DHT22;54058;52.010;5.546;2022-07-06T15:28:43;23.90;47.90
67141;DHT22;54058;52.010;5.546;2022-07-06T15:31:09;23.90;48.00
67141;DHT22;54058;52.010;5.546;2022-07-06T15:33:34;23.90;47.40
67141;DHT22;54058;52.010;5.546;2022-07-06T15:36:00;23.70;46.80
67141;DHT22;54058;52.010;5.546;2022-07-06T15:38:25;23.60;47.30
67141;DHT22;54058;52.010;5.546;2022-07-06T15:40:51;23.60;47.90